sensor_id;sensor_type;location;lat;lon;timestamp;P1;durP1;ratioP1;P2;durP2;ratioP2
72156;SDS011;60035;52.122;5.406;2024-03-29T00:00:45;6.53;;;0.70;;
72156;SDS011;60035;52.122;5.406;2024-03-29T00:03:17;5.05;;;0.70;;
72156;SDS011;60035;52.122;5.406;2024-03-29T00:05:57;3.47;;;0.88;;
72156;SDS011;60035;52.122;5.406;2024-03-29T00:08:31;5.35;;;0.90;;
72156;SDS011;60035;52.122;5.406;2024-03-29T00:11:06;4.43;;;0.52;;
72156;SDS011;60035;52.122;5.406;2024-03-29T00:13:38;4.43;;;0.80;;
72156;SDS011;60035;52.122;5.406;2024-03-29T00:16:11;4.55;;;0.70;;
72156;SDS011;60035;52.122;5.406;2024-03-29T00:18:46;3.70;;;0.43;;
72156;SDS011;60035;52.122;5.406;2024-03-29T00:21:20;4.32;;;0.55;;
72156;SDS011;60035;52.122;5.406;2024-03-29T00:23:49;5.40;;;0.77;;
72156;SDS011;60035;52.122;5.406;2024-03-29T00:26:20;3.42;;;0.80;;
72156;SDS011;60035;52.122;5.406;2024-03-29T00:28:51;4.25;;;0.70;;
72156;SDS011;60035;52.122;5.406;2024-03-29T00:31:30;1.23;;;0.43;;
72156;SDS011;60035;52.122;5.406;2024-03-29T00:34:04;3.13;;;0.80;;
72156;SDS011;60035;52.122;5.406;2024-03-29T00:36:42;3.85;;;0.93;;
72156;SDS011;60035;52.122;5.406;2024-03-29T00:39:18;2.85;;;0.70;;
72156;SDS011;60035;52.122;5.406;2024-03-29T00:41:49;6.43;;;0.95;;
72156;SDS011;60035;52.122;5.406;2024-03-29T00:44:20;7.20;;;0.95;;
72156;SDS011;60035;52.122;5.406;2024-03-29T00:46:49;6.13;;;0.63;;
72156;SDS011;60035;52.122;5.406;2024-03-29T00:49:20;3.75;;;0.75;;
72156;SDS011;60035;52.122;5.406;2024-03-29T00:51:48;3.85;;;1.13;;
72156;SDS011;60035;52.122;5.406;2024-03-29T00:54:26;4.50;;;0.70;;
72156;SDS011;60035;52.122;5.406;2024-03-29T00:56:54;4.03;;;0.70;;
72156;SDS011;60035;52.122;5.406;2024-03-29T00:59:25;6.65;;;0.70;;
72156;SDS011;60035;52.122;5.406;2024-03-29T01:01:56;3.03;;;0.50;;
72156;SDS011;60035;52.122;5.406;2024-03-29T01:04:25;5.82;;;0.52;;
72156;SDS011;60035;52.122;5.406;2024-03-29T01:06:58;3.90;;;0.93;;
72156;SDS011;60035;52.122;5.406;2024-03-29T01:09:29;5.18;;;0.75;;
72156;SDS011;60035;52.122;5.406;2024-03-29T01:12:00;5.30;;;0.85;;
72156;SDS011;60035;52.122;5.406;2024-03-29T01:14:31;3.30;;;0.70;;
72156;SDS011;60035;52.122;5.406;2024-03-29T01:17:07;4.90;;;0.90;;
72156;SDS011;60035;52.122;5.406;2024-03-29T01:22:10;6.10;;;0.63;;
72156;SDS011;60035;52.122;5.406;2024-03-29T01:24:44;5.88;;;0.52;;
72156;SDS011;60035;52.122;5.406;2024-03-29T01:27:12;7.28;;;1.42;;
72156;SDS011;60035;52.122;5.406;2024-03-29T01:29:44;6.50;;;1.23;;
72156;SDS011;60035;52.122;5.406;2024-03-29T01:32:15;3.38;;;0.52;;
72156;SDS011;60035;52.122;5.406;2024-03-29T01:34:47;5.15;;;0.60;;
72156;SDS011;60035;52.122;5.406;2024-03-29T01:37:19;3.92;;;0.70;;
72156;SDS011;60035;52.122;5.406;2024-03-29T01:39:52;3.15;;;0.80;;
72156;SDS011;60035;52.122;5.406;2024-03-29T01:42:24;2.13;;;0.63;;
72156;SDS011;60035;52.122;5.406;2024-03-29T01:45:01;2.03;;;0.30;;
72156;SDS011;60035;52.122;5.406;2024-03-29T01:47:34;7.45;;;0.75;;
72156;SDS011;60035;52.122;5.406;2024-03-29T01:50:08;3.35;;;0.70;;
72156;SDS011;60035;52.122;5.406;2024-03-29T01:52:40;2.50;;;0.45;;
72156;SDS011;60035;52.122;5.406;2024-03-29T01:55:08;4.93;;;1.05;;
72156;SDS011;60035;52.122;5.406;2024-03-29T01:57:37;3.25;;;0.60;;
72156;SDS011;60035;52.122;5.406;2024-03-29T02:00:07;3.30;;;0.60;;
72156;SDS011;60035;52.122;5.406;2024-03-29T02:02:41;3.03;;;0.73;;
72156;SDS011;60035;52.122;5.406;2024-03-29T02:05:09;3.10;;;0.60;;
72156;SDS011;60035;52.122;5.406;2024-03-29T02:07:41;6.50;;;0.80;;
72156;SDS011;60035;52.122;5.406;2024-03-29T02:10:20;6.47;;;0.88;;
72156;SDS011;60035;52.122;5.406;2024-03-29T02:12:49;3.38;;;0.73;;
72156;SDS011;60035;52.122;5.406;2024-03-29T02:15:22;7.40;;;0.57;;
72156;SDS011;60035;52.122;5.406;2024-03-29T02:17:53;3.55;;;0.45;;
72156;SDS011;60035;52.122;5.406;2024-03-29T02:20:27;3.63;;;1.02;;
72156;SDS011;60035;52.122;5.406;2024-03-29T02:23:06;7.05;;;0.70;;
72156;SDS011;60035;52.122;5.406;2024-03-29T02:25:39;4.68;;;0.68;;
72156;SDS011;60035;52.122;5.406;2024-03-29T02:28:11;2.88;;;0.52;;
72156;SDS011;60035;52.122;5.406;2024-03-29T02:30:43;2.58;;;0.73;;
72156;SDS011;60035;52.122;5.406;2024-03-29T02:33:11;3.65;;;0.52;;
72156;SDS011;60035;52.122;5.406;2024-03-29T02:35:40;8.52;;;0.60;;
72156;SDS011;60035;52.122;5.406;2024-03-29T02:38:16;2.13;;;0.52;;
72156;SDS011;60035;52.122;5.406;2024-03-29T02:40:47;7.53;;;0.60;;
72156;SDS011;60035;52.122;5.406;2024-03-29T02:43:18;4.97;;;0.60;;
72156;SDS011;60035;52.122;5.406;2024-03-29T02:45:47;2.13;;;0.40;;
72156;SDS011;60035;52.122;5.406;2024-03-29T02:48:18;3.90;;;0.57;;
72156;SDS011;60035;52.122;5.406;2024-03-29T02:50:48;5.60;;;0.68;;
72156;SDS011;60035;52.122;5.406;2024-03-29T02:53:17;3.60;;;0.55;;
72156;SDS011;60035;52.122;5.406;2024-03-29T02:55:48;4.75;;;0.82;;
72156;SDS011;60035;52.122;5.406;2024-03-29T02:58:26;3.83;;;0.60;;
72156;SDS011;60035;52.122;5.406;2024-03-29T03:00:54;3.63;;;0.52;;
72156;SDS011;60035;52.122;5.406;2024-03-29T03:03:32;3.05;;;0.45;;
72156;SDS011;60035;52.122;5.406;2024-03-29T03:06:00;5.03;;;0.50;;
72156;SDS011;60035;52.122;5.406;2024-03-29T03:08:34;2.63;;;0.60;;
72156;SDS011;60035;52.122;5.406;2024-03-29T03:11:24;3.95;;;0.50;;
72156;SDS011;60035;52.122;5.406;2024-03-29T03:13:55;3.20;;;0.70;;
72156;SDS011;60035;52.122;5.406;2024-03-29T03:16:26;3.20;;;0.50;;
72156;SDS011;60035;52.122;5.406;2024-03-29T03:19:15;3.38;;;0.52;;
72156;SDS011;60035;52.122;5.406;2024-03-29T03:21:48;3.38;;;0.55;;
72156;SDS011;60035;52.122;5.406;2024-03-29T03:24:18;1.50;;;0.38;;
72156;SDS011;60035;52.122;5.406;2024-03-29T03:26:55;2.85;;;0.40;;
72156;SDS011;60035;52.122;5.406;2024-03-29T03:29:26;2.97;;;0.60;;
72156;SDS011;60035;52.122;5.406;2024-03-29T03:31:56;3.53;;;0.50;;
72156;SDS011;60035;52.122;5.406;2024-03-29T03:34:25;4.15;;;0.50;;
72156;SDS011;60035;52.122;5.406;2024-03-29T03:37:00;2.88;;;0.60;;
72156;SDS011;60035;52.122;5.406;2024-03-29T03:39:34;4.15;;;0.70;;
72156;SDS011;60035;52.122;5.406;2024-03-29T03:42:02;4.32;;;0.50;;
72156;SDS011;60035;52.122;5.406;2024-03-29T03:44:38;2.13;;;0.40;;
72156;SDS011;60035;52.122;5.406;2024-03-29T03:47:12;2.55;;;0.90;;
72156;SDS011;60035;52.122;5.406;2024-03-29T03:49:40;5.00;;;0.70;;
72156;SDS011;60035;52.122;5.406;2024-03-29T03:52:16;3.25;;;0.60;;
72156;SDS011;60035;52.122;5.406;2024-03-29T03:54:45;3.72;;;0.45;;
72156;SDS011;60035;52.122;5.406;2024-03-29T03:57:15;4.25;;;0.55;;
72156;SDS011;60035;52.122;5.406;2024-03-29T03:59:44;2.10;;;0.60;;
72156;SDS011;60035;52.122;5.406;2024-03-29T04:02:18;2.83;;;0.52;;
72156;SDS011;60035;52.122;5.406;2024-03-29T04:04:54;3.78;;;0.45;;
72156;SDS011;60035;52.122;5.406;2024-03-29T04:07:28;3.70;;;0.65;;
72156;SDS011;60035;52.122;5.406;2024-03-29T04:09:56;1.38;;;0.40;;
72156;SDS011;60035;52.122;5.406;2024-03-29T04:12:27;3.83;;;0.70;;
72156;SDS011;60035;52.122;5.406;2024-03-29T04:15:00;4.15;;;0.55;;
72156;SDS011;60035;52.122;5.406;2024-03-29T04:17:32;2.92;;;0.50;;
72156;SDS011;60035;52.122;5.406;2024-03-29T04:20:03;2.88;;;0.65;;
72156;SDS011;60035;52.122;5.406;2024-03-29T04:22:35;4.05;;;0.77;;
72156;SDS011;60035;52.122;5.406;2024-03-29T04:25:04;2.22;;;0.50;;
72156;SDS011;60035;52.122;5.406;2024-03-29T04:27:44;1.35;;;0.32;;
72156;SDS011;60035;52.122;5.406;2024-03-29T04:30:24;2.53;;;0.40;;
72156;SDS011;60035;52.122;5.406;2024-03-29T04:32:58;1.75;;;0.40;;
72156;SDS011;60035;52.122;5.406;2024-03-29T04:35:29;2.65;;;0.40;;
72156;SDS011;60035;52.122;5.406;2024-03-29T04:38:00;3.90;;;0.47;;
72156;SDS011;60035;52.122;5.406;2024-03-29T04:40:29;2.17;;;1.10;;
72156;SDS011;60035;52.122;5.406;2024-03-29T04:42:58;3.85;;;0.70;;
72156;SDS011;60035;52.122;5.406;2024-03-29T04:45:26;1.52;;;0.40;;
72156;SDS011;60035;52.122;5.406;2024-03-29T04:47:58;1.25;;;0.40;;
72156;SDS011;60035;52.122;5.406;2024-03-29T04:50:28;1.08;;;0.40;;
72156;SDS011;60035;52.122;5.406;2024-03-29T04:53:01;2.25;;;0.55;;
72156;SDS011;60035;52.122;5.406;2024-03-29T04:55:36;2.95;;;0.50;;
72156;SDS011;60035;52.122;5.406;2024-03-29T04:58:15;1.27;;;0.30;;
72156;SDS011;60035;52.122;5.406;2024-03-29T05:00:46;1.77;;;0.52;;
72156;SDS011;60035;52.122;5.406;2024-03-29T05:03:21;2.72;;;0.40;;
72156;SDS011;60035;52.122;5.406;2024-03-29T05:05:52;2.97;;;0.30;;
72156;SDS011;60035;52.122;5.406;2024-03-29T05:08:24;2.22;;;0.60;;
72156;SDS011;60035;52.122;5.406;2024-03-29T05:10:57;1.42;;;0.47;;
72156;SDS011;60035;52.122;5.406;2024-03-29T05:15:58;2.05;;;0.32;;
72156;SDS011;60035;52.122;5.406;2024-03-29T05:18:29;1.65;;;0.50;;
72156;SDS011;60035;52.122;5.406;2024-03-29T05:20:58;3.40;;;0.30;;
72156;SDS011;60035;52.122;5.406;2024-03-29T05:23:29;3.05;;;0.45;;
72156;SDS011;60035;52.122;5.406;2024-03-29T05:26:01;1.75;;;0.40;;
72156;SDS011;60035;52.122;5.406;2024-03-29T05:28:29;2.08;;;0.50;;
72156;SDS011;60035;52.122;5.406;2024-03-29T05:31:10;2.75;;;0.50;;
72156;SDS011;60035;52.122;5.406;2024-03-29T05:33:42;1.73;;;0.32;;
72156;SDS011;60035;52.122;5.406;2024-03-29T05:36:12;2.60;;;0.40;;
72156;SDS011;60035;52.122;5.406;2024-03-29T05:38:43;3.70;;;0.50;;
72156;SDS011;60035;52.122;5.406;2024-03-29T05:41:11;1.50;;;0.47;;
72156;SDS011;60035;52.122;5.406;2024-03-29T05:43:43;4.72;;;0.70;;
72156;SDS011;60035;52.122;5.406;2024-03-29T05:46:19;3.35;;;0.75;;
72156;SDS011;60035;52.122;5.406;2024-03-29T05:51:20;2.55;;;0.77;;
72156;SDS011;60035;52.122;5.406;2024-03-29T05:53:52;3.65;;;1.10;;
72156;SDS011;60035;52.122;5.406;2024-03-29T05:56:23;1.52;;;0.85;;
72156;SDS011;60035;52.122;5.406;2024-03-29T05:58:57;2.78;;;0.60;;
72156;SDS011;60035;52.122;5.406;2024-03-29T06:01:36;1.25;;;0.43;;
72156;SDS011;60035;52.122;5.406;2024-03-29T06:04:07;1.17;;;0.60;;
72156;SDS011;60035;52.122;5.406;2024-03-29T06:06:48;2.40;;;0.30;;
72156;SDS011;60035;52.122;5.406;2024-03-29T06:09:18;2.40;;;0.43;;
72156;SDS011;60035;52.122;5.406;2024-03-29T06:11:50;1.90;;;0.63;;
72156;SDS011;60035;52.122;5.406;2024-03-29T06:17:19;2.33;;;0.50;;
72156;SDS011;60035;52.122;5.406;2024-03-29T06:19:53;3.58;;;0.65;;
72156;SDS011;60035;52.122;5.406;2024-03-29T06:22:30;4.78;;;0.60;;
72156;SDS011;60035;52.122;5.406;2024-03-29T06:25:01;2.60;;;0.70;;
72156;SDS011;60035;52.122;5.406;2024-03-29T06:27:34;3.33;;;0.70;;
72156;SDS011;60035;52.122;5.406;2024-03-29T06:30:06;3.97;;;0.80;;
72156;SDS011;60035;52.122;5.406;2024-03-29T06:32:52;2.00;;;0.70;;
72156;SDS011;60035;52.122;5.406;2024-03-29T06:35:37;3.70;;;0.57;;
72156;SDS011;60035;52.122;5.406;2024-03-29T06:38:10;4.22;;;0.70;;
72156;SDS011;60035;52.122;5.406;2024-03-29T06:40:41;3.42;;;0.60;;
72156;SDS011;60035;52.122;5.406;2024-03-29T06:43:14;3.58;;;0.73;;
72156;SDS011;60035;52.122;5.406;2024-03-29T06:45:48;2.38;;;0.50;;
72156;SDS011;60035;52.122;5.406;2024-03-29T06:48:19;3.08;;;0.43;;
72156;SDS011;60035;52.122;5.406;2024-03-29T06:50:51;2.50;;;0.60;;
72156;SDS011;60035;52.122;5.406;2024-03-29T06:53:23;1.05;;;0.45;;
72156;SDS011;60035;52.122;5.406;2024-03-29T06:55:51;2.20;;;0.60;;
72156;SDS011;60035;52.122;5.406;2024-03-29T06:58:22;2.60;;;0.65;;
72156;SDS011;60035;52.122;5.406;2024-03-29T07:00:53;2.00;;;0.60;;
72156;SDS011;60035;52.122;5.406;2024-03-29T07:03:22;2.58;;;0.57;;
72156;SDS011;60035;52.122;5.406;2024-03-29T07:05:54;2.67;;;0.47;;
72156;SDS011;60035;52.122;5.406;2024-03-29T07:08:22;3.95;;;0.75;;
72156;SDS011;60035;52.122;5.406;2024-03-29T07:11:01;3.20;;;0.50;;
72156;SDS011;60035;52.122;5.406;2024-03-29T07:13:31;3.63;;;0.65;;
72156;SDS011;60035;52.122;5.406;2024-03-29T07:16:00;2.78;;;0.50;;
72156;SDS011;60035;52.122;5.406;2024-03-29T07:18:29;1.67;;;0.50;;
72156;SDS011;60035;52.122;5.406;2024-03-29T07:20:57;1.58;;;0.80;;
72156;SDS011;60035;52.122;5.406;2024-03-29T07:23:26;1.58;;;0.50;;
72156;SDS011;60035;52.122;5.406;2024-03-29T07:26:01;1.83;;;0.60;;
72156;SDS011;60035;52.122;5.406;2024-03-29T07:28:33;3.45;;;0.65;;
72156;SDS011;60035;52.122;5.406;2024-03-29T07:31:06;3.58;;;0.57;;
72156;SDS011;60035;52.122;5.406;2024-03-29T07:33:36;2.65;;;0.40;;
72156;SDS011;60035;52.122;5.406;2024-03-29T07:36:10;4.38;;;0.82;;
72156;SDS011;60035;52.122;5.406;2024-03-29T07:38:40;1.40;;;0.40;;
72156;SDS011;60035;52.122;5.406;2024-03-29T07:41:13;1.60;;;0.60;;
72156;SDS011;60035;52.122;5.406;2024-03-29T07:43:54;3.15;;;0.60;;
72156;SDS011;60035;52.122;5.406;2024-03-29T07:46:32;1.55;;;0.63;;
72156;SDS011;60035;52.122;5.406;2024-03-29T07:49:07;2.55;;;0.63;;
72156;SDS011;60035;52.122;5.406;2024-03-29T07:51:39;1.52;;;0.60;;
72156;SDS011;60035;52.122;5.406;2024-03-29T07:54:10;3.53;;;1.02;;
72156;SDS011;60035;52.122;5.406;2024-03-29T07:56:38;2.63;;;0.82;;
72156;SDS011;60035;52.122;5.406;2024-03-29T07:59:13;2.67;;;0.80;;
72156;SDS011;60035;52.122;5.406;2024-03-29T08:01:49;1.85;;;0.50;;
72156;SDS011;60035;52.122;5.406;2024-03-29T08:04:26;1.85;;;0.50;;
72156;SDS011;60035;52.122;5.406;2024-03-29T08:06:55;4.55;;;0.95;;
72156;SDS011;60035;52.122;5.406;2024-03-29T08:09:29;1.38;;;0.65;;
72156;SDS011;60035;52.122;5.406;2024-03-29T08:12:05;1.48;;;0.65;;
72156;SDS011;60035;52.122;5.406;2024-03-29T08:14:33;1.95;;;0.60;;
72156;SDS011;60035;52.122;5.406;2024-03-29T08:17:05;1.65;;;0.50;;
72156;SDS011;60035;52.122;5.406;2024-03-29T08:19:39;2.83;;;0.50;;
72156;SDS011;60035;52.122;5.406;2024-03-29T08:22:09;1.08;;;0.30;;
72156;SDS011;60035;52.122;5.406;2024-03-29T08:24:41;1.63;;;0.40;;
72156;SDS011;60035;52.122;5.406;2024-03-29T08:27:16;2.67;;;0.50;;
72156;SDS011;60035;52.122;5.406;2024-03-29T08:29:48;1.75;;;0.50;;
72156;SDS011;60035;52.122;5.406;2024-03-29T08:32:20;1.40;;;0.47;;
72156;SDS011;60035;52.122;5.406;2024-03-29T08:34:52;1.52;;;0.50;;
72156;SDS011;60035;52.122;5.406;2024-03-29T08:37:25;1.00;;;0.30;;
72156;SDS011;60035;52.122;5.406;2024-03-29T08:39:54;0.90;;;0.40;;
72156;SDS011;60035;52.122;5.406;2024-03-29T08:42:22;1.70;;;0.47;;
72156;SDS011;60035;52.122;5.406;2024-03-29T08:44:54;2.25;;;0.50;;
72156;SDS011;60035;52.122;5.406;2024-03-29T08:47:26;1.00;;;0.50;;
72156;SDS011;60035;52.122;5.406;2024-03-29T08:49:58;2.45;;;0.60;;
72156;SDS011;60035;52.122;5.406;2024-03-29T08:52:35;2.05;;;0.47;;
72156;SDS011;60035;52.122;5.406;2024-03-29T08:55:06;1.95;;;0.50;;
72156;SDS011;60035;52.122;5.406;2024-03-29T08:57:37;1.42;;;0.50;;
72156;SDS011;60035;52.122;5.406;2024-03-29T09:00:13;1.10;;;0.50;;
72156;SDS011;60035;52.122;5.406;2024-03-29T09:02:46;2.85;;;0.40;;
72156;SDS011;60035;52.122;5.406;2024-03-29T09:05:16;2.75;;;0.70;;
72156;SDS011;60035;52.122;5.406;2024-03-29T09:07:44;1.42;;;0.38;;
72156;SDS011;60035;52.122;5.406;2024-03-29T09:10:16;4.50;;;0.80;;
72156;SDS011;60035;52.122;5.406;2024-03-29T09:12:52;4.82;;;0.63;;
72156;SDS011;60035;52.122;5.406;2024-03-29T09:15:20;1.63;;;0.93;;
72156;SDS011;60035;52.122;5.406;2024-03-29T09:17:53;4.18;;;0.68;;
72156;SDS011;60035;52.122;5.406;2024-03-29T09:20:31;2.10;;;0.55;;
72156;SDS011;60035;52.122;5.406;2024-03-29T09:22:59;1.85;;;0.52;;
72156;SDS011;60035;52.122;5.406;2024-03-29T09:25:30;2.08;;;0.57;;
72156;SDS011;60035;52.122;5.406;2024-03-29T09:28:01;3.05;;;0.90;;
72156;SDS011;60035;52.122;5.406;2024-03-29T09:30:30;1.70;;;0.50;;
72156;SDS011;60035;52.122;5.406;2024-03-29T09:32:58;2.00;;;0.40;;
72156;SDS011;60035;52.122;5.406;2024-03-29T09:35:33;1.73;;;0.50;;
72156;SDS011;60035;52.122;5.406;2024-03-29T09:38:05;4.07;;;0.50;;
72156;SDS011;60035;52.122;5.406;2024-03-29T09:40:38;2.17;;;0.70;;
72156;SDS011;60035;52.122;5.406;2024-03-29T09:43:09;2.78;;;0.80;;
72156;SDS011;60035;52.122;5.406;2024-03-29T09:45:54;2.80;;;0.52;;
72156;SDS011;60035;52.122;5.406;2024-03-29T09:48:25;2.70;;;0.50;;
72156;SDS011;60035;52.122;5.406;2024-03-29T09:50:58;2.55;;;0.70;;
72156;SDS011;60035;52.122;5.406;2024-03-29T09:53:27;1.92;;;0.50;;
72156;SDS011;60035;52.122;5.406;2024-03-29T09:56:01;2.85;;;0.70;;
72156;SDS011;60035;52.122;5.406;2024-03-29T09:58:32;2.40;;;0.52;;
72156;SDS011;60035;52.122;5.406;2024-03-29T10:01:09;1.85;;;0.70;;
72156;SDS011;60035;52.122;5.406;2024-03-29T10:03:44;0.88;;;0.60;;
72156;SDS011;60035;52.122;5.406;2024-03-29T10:06:20;2.80;;;0.60;;
72156;SDS011;60035;52.122;5.406;2024-03-29T10:08:54;4.05;;;0.82;;
72156;SDS011;60035;52.122;5.406;2024-03-29T10:11:25;3.97;;;1.33;;
72156;SDS011;60035;52.122;5.406;2024-03-29T10:13:58;3.15;;;0.70;;
72156;SDS011;60035;52.122;5.406;2024-03-29T10:16:30;1.15;;;0.43;;
72156;SDS011;60035;52.122;5.406;2024-03-29T10:19:01;3.50;;;0.82;;
72156;SDS011;60035;52.122;5.406;2024-03-29T10:21:33;4.95;;;0.70;;
72156;SDS011;60035;52.122;5.406;2024-03-29T10:24:15;3.33;;;0.70;;
72156;SDS011;60035;52.122;5.406;2024-03-29T10:26:47;3.63;;;0.80;;
72156;SDS011;60035;52.122;5.406;2024-03-29T10:29:19;2.85;;;0.80;;
72156;SDS011;60035;52.122;5.406;2024-03-29T10:31:56;3.17;;;0.70;;
72156;SDS011;60035;52.122;5.406;2024-03-29T10:34:29;3.03;;;0.93;;
72156;SDS011;60035;52.122;5.406;2024-03-29T10:37:03;2.97;;;0.80;;
72156;SDS011;60035;52.122;5.406;2024-03-29T10:39:41;3.97;;;0.80;;
72156;SDS011;60035;52.122;5.406;2024-03-29T10:42:10;4.45;;;0.75;;
72156;SDS011;60035;52.122;5.406;2024-03-29T10:44:42;1.92;;;0.70;;
72156;SDS011;60035;52.122;5.406;2024-03-29T10:47:11;2.58;;;0.65;;
72156;SDS011;60035;52.122;5.406;2024-03-29T10:49:52;2.53;;;0.68;;
72156;SDS011;60035;52.122;5.406;2024-03-29T10:52:26;3.08;;;0.70;;
72156;SDS011;60035;52.122;5.406;2024-03-29T10:54:58;1.63;;;0.70;;
72156;SDS011;60035;52.122;5.406;2024-03-29T10:57:38;2.92;;;0.95;;
72156;SDS011;60035;52.122;5.406;2024-03-29T11:00:12;2.45;;;1.13;;
72156;SDS011;60035;52.122;5.406;2024-03-29T11:02:59;3.15;;;0.90;;
72156;SDS011;60035;52.122;5.406;2024-03-29T11:05:48;2.65;;;0.75;;
72156;SDS011;60035;52.122;5.406;2024-03-29T11:08:27;2.53;;;0.93;;
72156;SDS011;60035;52.122;5.406;2024-03-29T11:11:02;3.33;;;0.88;;
72156;SDS011;60035;52.122;5.406;2024-03-29T11:13:40;3.63;;;0.93;;
72156;SDS011;60035;52.122;5.406;2024-03-29T11:16:23;4.72;;;1.40;;
72156;SDS011;60035;52.122;5.406;2024-03-29T11:18:52;4.53;;;1.73;;
72156;SDS011;60035;52.122;5.406;2024-03-29T11:21:21;3.30;;;1.10;;
72156;SDS011;60035;52.122;5.406;2024-03-29T11:23:55;2.88;;;0.95;;
72156;SDS011;60035;52.122;5.406;2024-03-29T11:26:24;2.42;;;1.08;;
72156;SDS011;60035;52.122;5.406;2024-03-29T11:28:55;2.30;;;0.90;;
72156;SDS011;60035;52.122;5.406;2024-03-29T11:31:26;2.30;;;1.10;;
72156;SDS011;60035;52.122;5.406;2024-03-29T11:34:08;3.88;;;1.10;;
72156;SDS011;60035;52.122;5.406;2024-03-29T11:36:42;3.97;;;1.10;;
72156;SDS011;60035;52.122;5.406;2024-03-29T11:39:24;2.85;;;0.90;;
72156;SDS011;60035;52.122;5.406;2024-03-29T11:41:56;2.58;;;1.00;;
72156;SDS011;60035;52.122;5.406;2024-03-29T11:44:39;2.63;;;0.98;;
72156;SDS011;60035;52.122;5.406;2024-03-29T11:47:07;1.92;;;1.20;;
72156;SDS011;60035;52.122;5.406;2024-03-29T11:49:38;1.52;;;0.70;;
72156;SDS011;60035;52.122;5.406;2024-03-29T11:52:10;1.90;;;0.60;;
72156;SDS011;60035;52.122;5.406;2024-03-29T11:54:40;2.83;;;0.65;;
72156;SDS011;60035;52.122;5.406;2024-03-29T11:57:11;2.95;;;1.10;;
72156;SDS011;60035;52.122;5.406;2024-03-29T11:59:45;1.98;;;0.80;;
72156;SDS011;60035;52.122;5.406;2024-03-29T12:02:16;3.05;;;0.85;;
72156;SDS011;60035;52.122;5.406;2024-03-29T12:04:45;2.20;;;1.00;;
72156;SDS011;60035;52.122;5.406;2024-03-29T12:07:16;1.67;;;0.90;;
72156;SDS011;60035;52.122;5.406;2024-03-29T12:09:44;2.08;;;0.70;;
72156;SDS011;60035;52.122;5.406;2024-03-29T12:12:15;2.17;;;0.90;;
72156;SDS011;60035;52.122;5.406;2024-03-29T12:14:47;2.42;;;0.77;;
72156;SDS011;60035;52.122;5.406;2024-03-29T12:17:17;5.57;;;1.02;;
72156;SDS011;60035;52.122;5.406;2024-03-29T12:19:50;2.80;;;0.95;;
72156;SDS011;60035;52.122;5.406;2024-03-29T12:22:22;2.20;;;0.93;;
72156;SDS011;60035;52.122;5.406;2024-03-29T12:24:56;3.13;;;0.90;;
72156;SDS011;60035;52.122;5.406;2024-03-29T12:27:30;1.88;;;0.70;;
72156;SDS011;60035;52.122;5.406;2024-03-29T12:30:06;2.75;;;0.80;;
72156;SDS011;60035;52.122;5.406;2024-03-29T12:32:39;3.55;;;1.27;;
72156;SDS011;60035;52.122;5.406;2024-03-29T12:35:08;3.17;;;1.20;;
72156;SDS011;60035;52.122;5.406;2024-03-29T12:37:49;2.55;;;1.00;;
72156;SDS011;60035;52.122;5.406;2024-03-29T12:40:43;2.33;;;1.20;;
72156;SDS011;60035;52.122;5.406;2024-03-29T12:43:26;3.05;;;1.40;;
72156;SDS011;60035;52.122;5.406;2024-03-29T12:45:57;4.15;;;1.52;;
72156;SDS011;60035;52.122;5.406;2024-03-29T12:48:27;5.28;;;1.23;;
72156;SDS011;60035;52.122;5.406;2024-03-29T12:50:57;2.17;;;1.00;;
72156;SDS011;60035;52.122;5.406;2024-03-29T12:53:27;4.22;;;1.70;;
72156;SDS011;60035;52.122;5.406;2024-03-29T12:55:57;4.10;;;1.60;;
72156;SDS011;60035;52.122;5.406;2024-03-29T12:58:33;4.80;;;1.60;;
72156;SDS011;60035;52.122;5.406;2024-03-29T13:01:05;5.30;;;1.88;;
72156;SDS011;60035;52.122;5.406;2024-03-29T13:03:34;3.88;;;1.50;;
72156;SDS011;60035;52.122;5.406;2024-03-29T13:06:05;3.75;;;1.45;;
72156;SDS011;60035;52.122;5.406;2024-03-29T13:08:38;4.30;;;2.13;;
72156;SDS011;60035;52.122;5.406;2024-03-29T13:11:08;4.15;;;1.77;;
72156;SDS011;60035;52.122;5.406;2024-03-29T13:13:41;3.92;;;1.40;;
72156;SDS011;60035;52.122;5.406;2024-03-29T13:16:12;3.22;;;1.50;;
72156;SDS011;60035;52.122;5.406;2024-03-29T13:18:43;4.25;;;1.65;;
72156;SDS011;60035;52.122;5.406;2024-03-29T13:21:12;3.13;;;1.70;;
72156;SDS011;60035;52.122;5.406;2024-03-29T13:23:49;6.53;;;2.05;;
72156;SDS011;60035;52.122;5.406;2024-03-29T13:26:20;4.43;;;1.60;;
72156;SDS011;60035;52.122;5.406;2024-03-29T13:28:51;4.93;;;1.40;;
72156;SDS011;60035;52.122;5.406;2024-03-29T13:31:25;4.75;;;1.42;;
72156;SDS011;60035;52.122;5.406;2024-03-29T13:33:55;2.95;;;1.20;;
72156;SDS011;60035;52.122;5.406;2024-03-29T13:36:39;3.83;;;1.50;;
72156;SDS011;60035;52.122;5.406;2024-03-29T13:39:07;3.28;;;1.45;;
72156;SDS011;60035;52.122;5.406;2024-03-29T13:41:40;3.38;;;1.40;;
72156;SDS011;60035;52.122;5.406;2024-03-29T13:44:11;2.72;;;1.10;;
72156;SDS011;60035;52.122;5.406;2024-03-29T13:46:44;3.90;;;1.40;;
72156;SDS011;60035;52.122;5.406;2024-03-29T13:49:12;3.15;;;1.10;;
72156;SDS011;60035;52.122;5.406;2024-03-29T13:51:42;4.22;;;1.30;;
72156;SDS011;60035;52.122;5.406;2024-03-29T13:54:15;3.15;;;1.00;;
72156;SDS011;60035;52.122;5.406;2024-03-29T13:56:47;2.75;;;1.05;;
72156;SDS011;60035;52.122;5.406;2024-03-29T13:59:21;2.92;;;1.02;;
72156;SDS011;60035;52.122;5.406;2024-03-29T14:02:00;3.10;;;1.00;;
72156;SDS011;60035;52.122;5.406;2024-03-29T14:04:31;2.40;;;0.98;;
72156;SDS011;60035;52.122;5.406;2024-03-29T14:07:10;1.88;;;0.90;;
72156;SDS011;60035;52.122;5.406;2024-03-29T14:09:42;2.13;;;0.90;;
72156;SDS011;60035;52.122;5.406;2024-03-29T14:12:19;2.35;;;0.80;;
72156;SDS011;60035;52.122;5.406;2024-03-29T14:14:54;4.68;;;0.80;;
72156;SDS011;60035;52.122;5.406;2024-03-29T14:17:23;1.52;;;0.63;;
72156;SDS011;60035;52.122;5.406;2024-03-29T14:19:54;1.85;;;0.65;;
72156;SDS011;60035;52.122;5.406;2024-03-29T14:22:23;2.85;;;0.95;;
72156;SDS011;60035;52.122;5.406;2024-03-29T14:24:57;2.35;;;0.80;;
72156;SDS011;60035;52.122;5.406;2024-03-29T14:27:27;2.10;;;0.70;;
72156;SDS011;60035;52.122;5.406;2024-03-29T14:29:56;1.95;;;0.50;;
72156;SDS011;60035;52.122;5.406;2024-03-29T14:32:31;1.33;;;0.63;;
72156;SDS011;60035;52.122;5.406;2024-03-29T14:35:01;1.45;;;0.43;;
72156;SDS011;60035;52.122;5.406;2024-03-29T14:37:33;1.05;;;0.50;;
72156;SDS011;60035;52.122;5.406;2024-03-29T14:40:01;1.23;;;0.68;;
72156;SDS011;60035;52.122;5.406;2024-03-29T14:42:32;1.63;;;0.55;;
72156;SDS011;60035;52.122;5.406;2024-03-29T14:45:07;2.03;;;0.70;;
72156;SDS011;60035;52.122;5.406;2024-03-29T14:47:38;2.30;;;0.55;;
72156;SDS011;60035;52.122;5.406;2024-03-29T14:50:12;2.30;;;0.57;;
72156;SDS011;60035;52.122;5.406;2024-03-29T14:52:48;1.48;;;0.50;;
72156;SDS011;60035;52.122;5.406;2024-03-29T14:55:18;1.80;;;0.50;;
72156;SDS011;60035;52.122;5.406;2024-03-29T14:57:50;1.23;;;0.50;;
72156;SDS011;60035;52.122;5.406;2024-03-29T15:00:20;1.50;;;0.70;;
72156;SDS011;60035;52.122;5.406;2024-03-29T15:02:51;1.58;;;0.43;;
72156;SDS011;60035;52.122;5.406;2024-03-29T15:05:23;1.60;;;0.50;;
72156;SDS011;60035;52.122;5.406;2024-03-29T15:07:53;1.42;;;0.50;;
72156;SDS011;60035;52.122;5.406;2024-03-29T15:10:24;1.10;;;0.40;;
72156;SDS011;60035;52.122;5.406;2024-03-29T15:12:59;3.63;;;0.52;;
72156;SDS011;60035;52.122;5.406;2024-03-29T15:15:35;1.40;;;0.60;;
72156;SDS011;60035;52.122;5.406;2024-03-29T15:18:05;1.75;;;0.50;;
72156;SDS011;60035;52.122;5.406;2024-03-29T15:20:33;1.13;;;0.60;;
72156;SDS011;60035;52.122;5.406;2024-03-29T15:23:02;0.75;;;0.40;;
72156;SDS011;60035;52.122;5.406;2024-03-29T15:25:34;1.73;;;0.50;;
72156;SDS011;60035;52.122;5.406;2024-03-29T15:28:02;1.65;;;0.60;;
72156;SDS011;60035;52.122;5.406;2024-03-29T15:30:40;1.25;;;0.57;;